Time;durP1;ratioP1;P1;durP2;ratioP2;P2;SDS_P1;SDS_P2;PMS_P1;PMS_P2;Temp;Humidity;BMP_temperature;BMP_pressure;BME280_temperature;BME280_humidity;BME280_pressure;Samples;Min_cycle;Max_cycle;Signal;HPM_P1;HPM_P2
2023/08/24 00:04:25;;;;;;;7.03;4.80;;;;;;;17.27;100.00;101759.84;10460944;28;20091;-67
2023/08/24 00:09:26;;;;;;;4.60;4.20;;;;;;;17.35;100.00;101769.69;10460835;28;20025;-68
2023/08/24 00:14:27;;;;;;;7.00;5.03;;;;;;;17.38;100.00;101771.97;10442210;28;20148;-68
2023/08/24 00:19:28;;;;;;;9.02;4.32;;;;;;;17.37;100.00;101765.66;10461487;28;20049;-68
2023/08/24 00:24:28;;;;;;;4.95;4.45;;;;;;;17.32;100.00;101760.00;10461187;28;20044;-69
2023/08/24 00:29:29;;;;;;;9.80;4.25;;;;;;;17.26;100.00;101751.84;10460472;28;20065;-68
2023/08/24 00:34:29;;;;;;;4.90;4.50;;;;;;;17.35;100.00;101756.81;10459968;28;20389;-68
2023/08/24 00:39:30;;;;;;;9.20;4.93;;;;;;;17.43;100.00;101758.47;10460839;28;20041;-68
2023/08/24 00:44:31;;;;;;;9.70;5.60;;;;;;;17.48;100.00;101760.53;10459325;28;20496;-68
2023/08/24 00:49:31;;;;;;;5.57;4.65;;;;;;;17.55;100.00;101758.56;10457882;28;20040;-68
2023/08/24 00:54:32;;;;;;;7.30;3.72;;;;;;;17.65;100.00;101776.19;10459763;28;20041;-68
2023/08/24 00:59:33;;;;;;;6.63;4.88;;;;;;;17.77;100.00;101772.75;10459856;28;20484;-68
2023/08/24 01:04:35;;;;;;;6.28;4.72;;;;;;;17.80;100.00;101764.91;10457268;28;20036;-67
2023/08/24 01:09:35;;;;;;;4.97;4.47;;;;;;;17.78;100.00;101736.94;10456721;28;20033;-68
2023/08/24 01:14:56;;;;;;;8.40;5.45;;;;;;;17.86;100.00;101741.28;10457271;28;20088;-68
2023/08/24 01:19:58;;;;;;;6.10;4.97;;;;;;;17.80;100.00;101745.75;10442824;28;20112;-67
2023/08/24 01:25:11;;;;;;;10.68;5.15;;;;;;;17.70;100.00;101747.28;10440155;28;20124;-67
2023/08/24 01:30:11;;;;;;;11.30;5.80;;;;;;;17.65;100.00;101747.97;10455837;28;20029;-67
2023/08/24 01:35:12;;;;;;;5.43;4.90;;;;;;;17.59;100.00;101733.28;10457526;28;20100;-67
2023/08/24 01:40:27;;;;;;;8.65;4.65;;;;;;;17.52;100.00;101737.97;10457836;28;20460;-67
2023/08/24 01:45:29;;;;;;;7.07;5.25;;;;;;;17.41;100.00;101725.00;10439117;28;20067;-67
2023/08/24 01:50:30;;;;;;;20.33;5.78;;;;;;;17.29;100.00;101719.38;10455401;28;20087;-67
2023/08/24 01:55:30;;;;;;;4.97;4.55;;;;;;;17.18;100.00;101717.38;10438321;28;20052;-67
2023/08/24 02:00:31;;;;;;;8.77;5.93;;;;;;;17.08;100.00;101704.19;10456434;28;20033;-67
2023/08/24 02:05:31;;;;;;;6.15;5.60;;;;;;;17.03;100.00;101671.16;10456284;28;20040;-67
2023/08/24 02:10:32;;;;;;;8.80;7.90;;;;;;;16.94;100.00;101656.94;10454041;28;20061;-67
2023/08/24 02:15:32;;;;;;;5.43;4.85;;;;;;;16.87;100.00;101642.44;10456065;28;20056;-67
2023/08/24 02:20:36;;;;;;;17.60;6.25;;;;;;;16.86;100.00;101634.47;10455335;28;20090;-67
2023/08/24 02:25:42;;;;;;;8.43;6.20;;;;;;;16.89;100.00;101658.66;10455503;28;20048;-67
2023/08/24 02:30:42;;;;;;;8.55;7.40;;;;;;;16.89;100.00;101659.47;10453929;28;20025;-67
2023/08/24 02:35:44;;;;;;;9.55;7.00;;;;;;;16.94;100.00;101661.53;10454882;28;20495;-67
2023/08/24 02:40:45;;;;;;;7.55;6.75;;;;;;;17.02;100.00;101660.44;10453735;28;20029;-67
2023/08/24 02:45:45;;;;;;;7.47;6.78;;;;;;;17.08;100.00;101643.97;10453316;28;20056;-67
2023/08/24 02:50:47;;;;;;;9.90;8.05;;;;;;;17.02;100.00;101642.13;10454391;28;20421;-67
2023/08/24 02:55:47;;;;;;;6.78;6.07;;;;;;;17.00;100.00;101629.72;10453052;28;20078;-67
2023/08/24 03:00:48;;;;;;;13.07;8.82;;;;;;;17.00;100.00;101610.56;10454592;28;20036;-67
2023/08/24 03:05:56;;;;;;;12.25;7.07;;;;;;;16.95;100.00;101614.81;10455424;28;20415;-67
2023/08/24 03:10:56;;;;;;;9.27;7.60;;;;;;;16.95;100.00;101625.78;10452510;28;20041;-68
2023/08/24 03:15:57;;;;;;;9.00;7.13;;;;;;;16.92;100.00;101604.31;10436054;28;20124;-67
2023/08/24 03:20:57;;;;;;;10.43;7.90;;;;;;;16.86;100.00;101609.84;10452038;28;20052;-67
2023/08/24 03:25:58;;;;;;;8.85;6.35;;;;;;;16.82;100.00;101614.94;10452317;28;20074;-69
2023/08/24 03:30:58;;;;;;;20.00;8.73;;;;;;;16.79;100.00;101607.16;10452548;28;20102;-68
2023/08/24 03:35:59;;;;;;;9.38;8.43;;;;;;;16.72;100.00;101609.91;10453087;28;20037;-68
2023/08/24 03:41:03;;;;;;;19.27;8.10;;;;;;;16.66;100.00;101613.53;10453129;28;20088;-68
2023/08/24 03:46:04;;;;;;;10.35;8.50;;;;;;;16.54;100.00;101598.88;10434484;28;20040;-67
2023/08/24 03:51:04;;;;;;;13.52;9.27;;;;;;;16.50;100.00;101608.59;10453061;28;20353;-68
2023/08/24 03:56:05;;;;;;;10.55;9.23;;;;;;;16.46;100.00;101610.94;10452179;28;20040;-68
2023/08/24 04:01:10;;;;;;;9.88;8.85;;;;;;;16.45;100.00;101620.16;10451007;28;20049;-68
2023/08/24 04:06:10;;;;;;;11.98;9.07;;;;;;;16.53;100.00;101610.88;10453078;28;20116;-68
2023/08/24 04:11:11;;;;;;;9.23;8.23;;;;;;;16.58;100.00;101602.00;10452414;28;20469;-67
2023/08/24 04:16:11;;;;;;;17.13;9.68;;;;;;;16.57;100.00;101600.34;10451007;28;20045;-68
2023/08/24 04:21:12;;;;;;;19.33;9.25;;;;;;;16.57;100.00;101600.34;10455777;28;20481;-68
2023/08/24 04:26:13;;;;;;;24.15;9.57;;;;;;;16.55;100.00;101596.97;10459921;28;20364;-68
2023/08/24 04:31:13;;;;;;;11.70;9.60;;;;;;;16.53;100.00;101589.00;10460065;28;20029;-67
2023/08/24 04:36:13;;;;;;;10.10;9.05;;;;;;;16.55;100.00;101597.81;10442075;28;20072;-68
2023/08/24 04:41:14;;;;;;;11.10;10.00;;;;;;;16.68;100.00;101585.94;10457762;28;20174;-70
2023/08/24 04:46:16;;;;;;;20.30;8.57;;;;;;;16.76;100.00;101579.41;10459058;28;20065;-69
2023/08/24 04:51:16;;;;;;;12.73;7.65;;;;;;;16.72;100.00;101570.78;10442327;28;20123;-69
2023/08/24 04:56:19;;;;;;;14.20;9.73;;;;;;;16.67;100.00;101563.25;10458810;28;20044;-70
2023/08/24 05:01:19;;;;;;;13.43;10.00;;;;;;;16.66;100.00;101561.56;10459153;28;20094;-67
2023/08/24 05:06:20;;;;;;;12.63;10.30;;;;;;;16.73;100.00;101553.31;10457630;28;20029;-67
2023/08/24 05:11:29;;;;;;;14.75;10.00;;;;;;;16.73;100.00;101531.44;10459137;28;20033;-68
2023/08/24 05:16:29;;;;;;;15.73;10.98;;;;;;;16.78;100.00;101528.88;10458240;28;20048;-68
2023/08/24 05:21:29;;;;;;;13.02;9.55;;;;;;;16.90;100.00;101529.00;10455962;28;20136;-68
2023/08/24 05:26:30;;;;;;;16.13;11.20;;;;;;;17.00;100.00;101540.25;10455917;28;20147;-68
2023/08/24 05:31:31;;;;;;;15.55;11.90;;;;;;;17.07;100.00;101529.25;10456546;28;20027;-67
2023/08/24 05:36:31;;;;;;;11.27;10.00;;;;;;;17.16;100.00;101528.75;10457791;28;20047;-68
2023/08/24 05:41:32;;;;;;;12.52;10.75;;;;;;;17.27;100.00;101515.41;10457954;28;20409;-68
2023/08/24 05:46:33;;;;;;;13.38;10.43;;;;;;;17.46;100.00;101517.06;10473512;28;20123;-68
2023/08/24 05:51:33;;;;;;;17.40;10.73;;;;;;;18.10;100.00;101510.16;10456126;28;20071;-68
2023/08/24 05:56:34;;;;;;;11.55;10.18;;;;;;;18.79;100.00;101499.63;10455822;28;20113;-68
2023/08/24 06:01:38;;;;;;;12.50;10.68;;;;;;;19.33;100.00;101490.38;10456609;28;20119;-68
2023/08/24 06:06:38;;;;;;;14.23;10.70;;;;;;;19.55;100.00;101494.16;10454754;28;20029;-68
2023/08/24 06:11:40;;;;;;;13.13;9.27;;;;;;;19.72;100.00;101480.53;10456757;28;20033;-67
2023/08/24 06:16:40;;;;;;;15.75;11.75;;;;;;;20.02;100.00;101462.97;10455608;28;20071;-68
2023/08/24 06:21:41;;;;;;;14.57;11.05;;;;;;;20.27;100.00;101462.59;10456782;28;20415;-68
2023/08/24 06:26:41;;;;;;;11.27;10.18;;;;;;;20.49;100.00;101446.19;10455813;28;20032;-68
2023/08/24 06:31:42;;;;;;;16.50;10.93;;;;;;;20.57;100.00;101449.34;10453306;28;20061;-68
2023/08/24 06:36:42;;;;;;;11.85;10.60;;;;;;;20.91;100.00;101449.31;10454635;28;20167;-68
2023/08/24 06:41:43;;;;;;;14.27;10.02;;;;;;;21.35;100.00;101465.94;10455236;28;20037;-68
2023/08/24 06:46:43;;;;;;;18.02;9.82;;;;;;;21.88;100.00;101482.81;10469009;28;20550;-68
2023/08/24 06:51:44;;;;;;;12.85;10.52;;;;;;;22.24;100.00;101456.47;10454883;28;20163;-68
2023/08/24 06:56:44;;;;;;;11.38;9.88;;;;;;;22.70;100.00;101454.06;10469545;28;20032;-68
2023/08/24 07:01:44;;;;;;;15.10;10.07;;;;;;;23.10;100.00;101448.00;10452427;28;20071;-68
2023/08/24 07:06:46;;;;;;;12.60;9.43;;;;;;;23.43;100.00;101455.06;10453628;28;20025;-68
2023/08/24 07:11:46;;;;;;;16.15;10.80;;;;;;;24.01;100.00;101452.22;10453702;28;20037;-68
2023/08/24 07:16:47;;;;;;;14.23;10.95;;;;;;;24.28;100.00;101454.75;10453452;28;20056;-68
2023/08/24 07:21:47;;;;;;;14.05;10.55;;;;;;;24.71;100.00;101447.00;10454670;28;20033;-68
2023/08/24 07:26:47;;;;;;;11.05;9.85;;;;;;;24.50;100.00;101439.81;10453463;28;20025;-68
2023/08/24 07:31:48;;;;;;;22.38;11.20;;;;;;;23.44;100.00;101440.13;10454186;28;20055;-69
2023/08/24 07:36:49;;;;;;;10.38;9.27;;;;;;;22.79;100.00;101438.69;10452687;28;20436;-69
2023/08/24 07:41:50;;;;;;;13.88;10.18;;;;;;;22.98;100.00;101422.53;10453532;28;20040;-68
2023/08/24 07:46:50;;;;;;;18.08;11.35;;;;;;;23.27;100.00;101417.41;10450897;28;20361;-68
2023/08/24 07:51:51;;;;;;;11.35;10.07;;;;;;;23.31;100.00;101437.03;10452002;28;20033;-68
2023/08/24 07:56:51;;;;;;;13.40;10.25;;;;;;;23.08;100.00;101421.75;10455600;28;20021;-69
2023/08/24 08:01:51;;;;;;;10.63;9.50;;;;;;;23.00;100.00;101419.47;10462157;28;20047;-68
2023/08/24 08:06:53;;;;;;;16.10;9.93;;;;;;;23.13;100.00;101421.75;10460664;28;20513;-68
2023/08/24 08:11:53;;;;;;;13.63;11.60;;;;;;;23.33;100.00;101404.47;10460404;28;20036;-68
2023/08/24 08:16:53;;;;;;;13.07;10.55;;;;;;;23.18;100.00;101396.94;10460445;28;20049;-68
2023/08/24 08:21:54;;;;;;;11.05;10.02;;;;;;;23.28;100.00;101394.19;10460417;28;20444;-68
2023/08/24 08:26:54;;;;;;;15.40;10.73;;;;;;;23.39;100.00;101376.56;10458376;28;20112;-68
2023/08/24 08:31:55;;;;;;;12.25;10.38;;;;;;;23.32;100.00;101366.84;10459617;28;20028;-68
2023/08/24 08:36:55;;;;;;;11.00;9.85;;;;;;;23.30;100.00;101358.03;10460144;28;20025;-68
2023/08/24 08:41:55;;;;;;;15.25;10.55;;;;;;;23.28;100.00;101354.69;10457914;28;20405;-68
2023/08/24 08:46:57;;;;;;;15.45;10.55;;;;;;;23.43;100.00;101347.28;10459023;28;20116;-68
2023/08/24 08:51:57;;;;;;;11.15;10.10;;;;;;;23.68;100.00;101348.44;10457705;28;20154;-68
2023/08/24 08:56:57;;;;;;;16.73;9.98;;;;;;;23.97;100.00;101337.69;10441053;28;20183;-68
2023/08/24 09:01:58;;;;;;;16.35;11.02;;;;;;;24.06;100.00;101327.72;10457728;28;20428;-68
2023/08/24 09:07:01;;;;;;;22.70;10.27;;;;;;;24.03;100.00;101325.50;10455873;28;20413;-68
2023/08/24 09:12:01;;;;;;;23.70;11.68;;;;;;;24.14;100.00;101345.69;10456862;28;20147;-68
2023/08/24 09:17:03;;;;;;;12.23;10.95;;;;;;;24.29;100.00;101356.75;10457255;28;20029;-68
2023/08/24 09:22:03;;;;;;;13.68;9.52;;;;;;;23.97;100.00;101378.34;10456416;28;20108;-68
2023/08/24 09:27:17;;;;;;;13.90;10.38;;;;;;;23.82;100.00;101374.47;10457037;28;20521;-68
2023/08/24 09:32:23;;;;;;;11.70;10.52;;;;;;;23.67;100.00;101366.09;10455331;28;20078;-68
2023/08/24 09:37:24;;;;;;;20.70;10.27;;;;;;;23.48;100.00;101365.78;10455664;28;20028;-68
2023/08/24 09:42:24;;;;;;;16.27;10.35;;;;;;;23.31;100.00;101366.03;10456801;28;20029;-68
2023/08/24 09:47:25;;;;;;;11.55;9.75;;;;;;;23.22;100.00;101362.13;10455975;28;20334;-68
2023/08/24 09:52:25;;;;;;;15.77;10.30;;;;;;;23.19;100.00;101357.13;10456119;28;20060;-68
2023/08/24 09:57:26;;;;;;;15.68;9.88;;;;;;;23.17;100.00;101376.75;10442810;28;20029;-68
2023/08/24 10:02:26;;;;;;;16.90;11.00;;;;;;;23.13;100.00;101374.78;10439221;28;20083;-68
2023/08/24 10:07:27;;;;;;;15.13;10.32;;;;;;;23.00;100.00;101369.75;10454919;28;20024;-69
2023/08/24 10:12:28;;;;;;;10.70;9.60;;;;;;;23.01;100.00;101363.16;10454532;28;20083;-68
2023/08/24 10:17:32;;;;;;;13.27;10.50;;;;;;;23.16;100.00;101344.69;10454621;28;20075;-68
2023/08/24 10:22:34;;;;;;;21.38;11.38;;;;;;;23.50;100.00;101341.47;10438151;28;20457;-68
2023/08/24 10:27:34;;;;;;;15.90;10.10;;;;;;;23.87;100.00;101334.94;10453846;28;20056;-68
2023/08/24 10:32:35;;;;;;;19.75;9.15;;;;;;;23.96;100.00;101338.78;10454954;28;20032;-68
2023/08/24 10:37:35;;;;;;;17.05;10.43;;;;;;;24.59;100.00;101350.34;10455413;28;20540;-68
2023/08/24 10:42:45;;;;;;;12.48;9.63;;;;;;;25.37;100.00;101348.16;10436905;28;20032;-68
2023/08/24 10:47:46;;;;;;;14.30;8.82;;;;;;;25.54;100.00;101350.53;10454410;28;20025;-70
2023/08/24 10:52:47;;;;;;;16.25;8.90;;;;;;;25.42;100.00;101326.75;10469763;28;20031;-68
2023/08/24 10:57:55;;;;;;;12.63;9.05;;;;;;;25.17;100.00;101324.13;10454524;28;20025;-68
2023/08/24 11:02:56;;;;;;;12.35;10.35;;;;;;;24.88;100.00;101323.97;10455241;28;20033;-69
2023/08/24 11:07:57;;;;;;;11.98;10.80;;;;;;;24.74;100.00;101316.25;10452542;28;20029;-68
2023/08/24 11:13:03;;;;;;;14.05;10.73;;;;;;;24.64;100.00;101299.69;10451909;28;20108;-68
2023/08/24 11:18:19;;;;;;;14.07;9.23;;;;;;;24.45;100.00;101287.56;10453062;28;20115;-68
2023/08/24 11:23:20;;;;;;;11.30;9.32;;;;;;;24.37;100.00;101277.84;10454384;28;20032;-68
2023/08/24 11:28:21;;;;;;;21.80;11.88;;;;;;;24.07;100.00;101279.56;10435340;28;20116;-68
2023/08/24 11:33:31;;;;;;;12.65;11.35;;;;;;;23.92;100.00;101273.22;10452647;28;20092;-68
2023/08/24 11:38:38;;;;;;;12.88;11.32;;;;;;;23.82;100.00;101250.00;10451972;28;20032;-68
2023/08/24 11:43:39;;;;;;;16.08;11.63;;;;;;;23.77;100.00;101246.41;10452351;28;20108;-68
2023/08/24 11:48:39;;;;;;;15.38;11.13;;;;;;;24.34;100.00;101246.00;10453498;28;20025;-68
2023/08/24 11:53:40;;;;;;;12.77;11.48;;;;;;;24.64;100.00;101233.22;10434775;28;20037;-68
2023/08/24 11:58:40;;;;;;;13.93;12.60;;;;;;;24.54;100.00;101211.94;10452314;28;20099;-68
2023/08/24 12:03:41;;;;;;;13.38;11.98;;;;;;;24.47;100.00;101193.97;10452459;28;20035;-68
2023/08/24 12:08:42;;;;;;;14.13;12.45;;;;;;;24.77;100.00;101191.06;10434811;28;20033;-68
2023/08/24 12:13:48;;;;;;;19.00;12.20;;;;;;;25.13;100.00;101190.03;10467422;28;20045;-69
2023/08/24 12:18:56;;;;;;;16.63;11.00;;;;;;;26.62;100.00;101160.47;10451169;28;20025;-68
2023/08/24 12:23:57;;;;;;;14.98;11.27;;;;;;;28.12;100.00;101159.66;10469116;28;20041;-69
2023/08/24 12:29:02;;;;;;;11.73;10.65;;;;;;;27.21;98.18;101165.72;10452857;28;20075;-69
2023/08/24 12:34:08;;;;;;;13.27;11.90;;;;;;;27.09;100.00;101164.22;10434012;28;20148;-68
2023/08/24 12:39:12;;;;;;;15.45;12.43;;;;;;;26.71;100.00;101170.91;10451135;28;20033;-68
2023/08/24 12:44:13;;;;;;;12.82;11.73;;;;;;;26.49;100.00;101179.84;10455831;28;20072;-68
2023/08/24 12:49:13;;;;;;;21.40;13.38;;;;;;;26.95;100.00;101173.63;10459163;28;20071;-68
2023/08/24 12:54:13;;;;;;;16.77;12.52;;;;;;;27.69;100.00;101179.38;10459015;28;20037;-69
2023/08/24 12:59:14;;;;;;;14.05;12.55;;;;;;;27.38;100.00;101163.22;10440904;28;20025;-68
2023/08/24 13:04:14;;;;;;;15.43;13.88;;;;;;;27.65;100.00;101165.25;10459208;28;20036;-68
2023/08/24 13:09:15;;;;;;;21.63;13.57;;;;;;;28.19;100.00;101165.63;10459696;28;20092;-69
2023/08/24 13:14:15;;;;;;;17.80;13.95;;;;;;;28.19;100.00;101171.19;10458964;28;20070;-69
2023/08/24 13:19:15;;;;;;;20.02;15.63;;;;;;;27.81;100.00;101160.25;10458798;28;20075;-68
2023/08/24 13:24:16;;;;;;;18.90;14.95;;;;;;;27.65;100.00;101151.34;10457812;28;20112;-68
2023/08/24 13:29:16;;;;;;;15.65;14.13;;;;;;;28.19;100.00;101146.13;10457496;28;20420;-68
2023/08/24 13:34:17;;;;;;;15.95;14.15;;;;;;;28.01;100.00;101122.84;10457824;28;20036;-68
2023/08/24 13:39:17;;;;;;;17.73;11.73;;;;;;;28.17;100.00;101121.38;10455558;28;20068;-68
2023/08/24 13:44:18;;;;;;;10.95;9.35;;;;;;;28.10;100.00;101114.59;10457809;28;20500;-69
2023/08/24 13:49:21;;;;;;;18.35;9.95;;;;;;;27.94;97.15;101111.28;10457753;28;20029;-69
2023/08/24 13:54:21;;;;;;;9.43;8.20;;;;;;;27.83;100.00;101105.13;10455951;28;20203;-68
2023/08/24 13:59:22;;;;;;;6.63;5.97;;;;;;;27.77;100.00;101098.00;10455963;28;20036;-69
2023/08/24 14:04:22;;;;;;;15.30;6.45;;;;;;;27.61;100.00;101108.56;10455575;28;20078;-69
2023/08/24 14:09:23;;;;;;;10.48;6.97;;;;;;;27.07;100.00;101105.31;10455201;28;20052;-69
2023/08/24 14:14:23;;;;;;;13.15;10.52;;;;;;;26.75;100.00;101103.34;10456404;28;20472;-68
2023/08/24 14:19:23;;;;;;;18.13;8.85;;;;;;;26.40;100.00;101085.22;10471252;28;20480;-68
2023/08/24 14:24:24;;;;;;;12.27;11.00;;;;;;;26.51;100.00;101083.97;10454816;28;20032;-68
2023/08/24 14:29:24;;;;;;;14.73;10.10;;;;;;;26.67;98.53;101068.75;10454028;28;20036;-68
2023/08/24 14:34:25;;;;;;;11.80;10.68;;;;;;;27.09;96.39;101053.03;10454975;28;20548;-68
2023/08/24 14:39:25;;;;;;;16.15;10.02;;;;;;;27.36;100.00;101041.16;10455262;28;20033;-68
2023/08/24 14:44:26;;;;;;;12.18;10.98;;;;;;;27.61;93.38;101046.56;10456130;28;20047;-68
2023/08/24 14:49:26;;;;;;;10.38;9.35;;;;;;;27.49;99.48;101050.66;10455078;28;20032;-68
2023/08/24 14:54:26;;;;;;;12.63;11.32;;;;;;;27.36;99.03;101059.81;10454779;28;20071;-68
2023/08/24 14:59:27;;;;;;;11.23;9.30;;;;;;;27.41;100.00;101054.16;10436109;28;20523;-68
2023/08/24 15:04:27;;;;;;;12.43;9.38;;;;;;;26.88;99.89;101043.41;10453261;28;20053;-68
2023/08/24 15:09:28;;;;;;;15.23;9.10;;;;;;;26.93;100.00;101037.75;10435538;28;20071;-68
2023/08/24 15:14:30;;;;;;;11.52;8.52;;;;;;;27.04;100.00;101030.06;10451400;28;20068;-68
2023/08/24 15:19:30;;;;;;;17.48;8.00;;;;;;;27.15;100.00;101023.19;10453571;28;20029;-68
2023/08/24 15:24:31;;;;;;;6.07;4.65;;;;;;;26.93;100.00;101026.66;10453148;28;20064;-68
2023/08/24 15:29:31;;;;;;;5.00;4.60;;;;;;;26.98;100.00;101004.31;10452858;28;20025;-68
2023/08/24 15:34:32;;;;;;;6.47;3.78;;;;;;;26.92;99.67;101008.31;10451905;28;20067;-68
2023/08/24 15:39:36;;;;;;;5.55;4.38;;;;;;;26.98;98.51;101026.53;10451627;28;20027;-68
2023/08/24 15:44:36;;;;;;;2.83;2.72;;;;;;;26.78;96.68;101018.56;10453535;28;20526;-68
2023/08/24 15:49:37;;;;;;;16.02;4.00;;;;;;;26.56;94.23;100995.03;10451527;28;20025;-68
2023/08/24 15:54:37;;;;;;;2.67;2.47;;;;;;;26.49;100.00;100989.03;10453522;28;20098;-68
2023/08/24 15:59:38;;;;;;;4.07;3.63;;;;;;;26.26;99.55;101003.78;10454037;28;20340;-68
2023/08/24 16:04:38;;;;;;;2.95;2.75;;;;;;;25.90;100.00;100994.03;10453871;28;20061;-68
2023/08/24 16:09:38;;;;;;;6.25;3.28;;;;;;;25.80;99.62;101009.97;10451602;28;20498;-69
2023/08/24 16:14:39;;;;;;;3.35;3.13;;;;;;;25.92;100.00;101004.84;10452579;28;20056;-69
2023/08/24 16:19:39;;;;;;;9.90;3.58;;;;;;;25.68;100.00;101011.19;10459428;28;20431;-68
2023/08/24 16:24:40;;;;;;;6.50;3.00;;;;;;;25.69;100.00;101007.31;10460935;28;20182;-68
2023/08/24 16:29:40;;;;;;;3.25;2.95;;;;;;;25.60;99.07;101003.56;10458340;28;20449;-68
2023/08/24 16:34:41;;;;;;;3.75;3.47;;;;;;;25.36;98.99;101011.84;10459770;28;20056;-68
2023/08/24 16:39:41;;;;;;;3.78;3.50;;;;;;;25.20;100.00;101005.66;10460202;28;20453;-68
2023/08/24 16:44:42;;;;;;;4.95;3.08;;;;;;;25.00;100.00;100986.44;10459735;28;20033;-68
2023/08/24 16:49:42;;;;;;;16.02;3.45;;;;;;;24.73;100.00;100979.50;10459266;28;20032;-68
2023/08/24 16:54:43;;;;;;;4.68;3.35;;;;;;;24.51;100.00;100979.13;10456731;28;20357;-68
2023/08/24 16:59:44;;;;;;;4.50;4.07;;;;;;;24.23;100.00;100980.69;10457213;28;20044;-68
2023/08/24 17:04:44;;;;;;;12.48;3.83;;;;;;;23.83;100.00;100980.63;10457668;28;20060;-68
2023/08/24 17:09:45;;;;;;;5.47;3.60;;;;;;;23.60;100.00;100971.03;10440803;28;20375;-68
2023/08/24 17:14:45;;;;;;;6.43;4.18;;;;;;;23.31;100.00;100967.28;10457553;28;20049;-68
2023/08/24 17:19:46;;;;;;;5.53;4.85;;;;;;;23.10;100.00;100960.97;10457659;28;20488;-68
2023/08/24 17:24:46;;;;;;;9.10;5.28;;;;;;;22.87;100.00;100971.47;10457050;28;20075;-68
2023/08/24 17:29:49;;;;;;;9.75;5.65;;;;;;;22.79;100.00;100977.56;10454629;28;20082;-68
2023/08/24 17:34:49;;;;;;;14.05;6.30;;;;;;;22.77;100.00;100982.53;10457385;28;20033;-68
2023/08/24 17:39:49;;;;;;;5.35;4.82;;;;;;;22.76;100.00;100975.38;10457399;28;20025;-68
2023/08/24 17:44:50;;;;;;;8.05;5.93;;;;;;;22.75;100.00;100980.06;10456644;28;20033;-68
2023/08/24 17:49:50;;;;;;;6.65;5.95;;;;;;;22.68;100.00;100982.25;10454989;28;20055;-68
2023/08/24 17:54:51;;;;;;;6.22;5.65;;;;;;;22.51;100.00;100974.25;10456513;28;20102;-68
2023/08/24 17:59:51;;;;;;;7.05;5.85;;;;;;;22.55;100.00;100970.94;10456417;28;20151;-68
2023/08/24 18:04:51;;;;;;;9.05;6.35;;;;;;;22.52;100.00;100951.06;10455719;28;20060;-68
2023/08/24 18:09:52;;;;;;;5.68;5.28;;;;;;;22.54;100.00;100956.31;10456106;28;20357;-68
2023/08/24 18:14:52;;;;;;;10.38;6.22;;;;;;;22.48;100.00;100954.66;10455842;28;20080;-68
2023/08/24 18:19:52;;;;;;;7.78;6.05;;;;;;;22.42;100.00;100940.03;10455191;28;20045;-68
2023/08/24 18:24:53;;;;;;;13.27;6.10;;;;;;;22.39;100.00;100929.53;10456042;28;20060;-68
2023/08/24 18:29:53;;;;;;;5.88;5.30;;;;;;;22.33;100.00;100933.41;10454517;28;20033;-68
2023/08/24 18:34:54;;;;;;;6.63;5.90;;;;;;;22.25;100.00;100920.19;10455206;28;20437;-68
2023/08/24 18:39:54;;;;;;;7.47;5.95;;;;;;;22.27;100.00;100928.97;10453272;28;20374;-72
2023/08/24 18:44:55;;;;;;;7.38;5.65;;;;;;;22.08;100.00;100925.94;10454199;28;20114;-70
2023/08/24 18:49:55;;;;;;;5.75;5.25;;;;;;;21.92;100.00;100911.28;10454668;28;20116;-67
2023/08/24 18:54:56;;;;;;;8.75;5.72;;;;;;;21.70;100.00;100877.63;10454031;28;20587;-69
2023/08/24 18:59:56;;;;;;;7.45;5.93;;;;;;;21.48;100.00;100850.28;10454112;28;20112;-67
2023/08/24 19:04:57;;;;;;;10.57;6.97;;;;;;;21.40;100.00;100843.34;10453917;28;20041;-66
2023/08/24 19:09:57;;;;;;;10.35;7.15;;;;;;;21.28;100.00;100835.31;10454653;28;20457;-68
2023/08/24 19:14:59;;;;;;;8.40;7.30;;;;;;;21.24;100.00;100825.09;10453852;28;20368;-67
2023/08/24 19:20:00;;;;;;;17.48;7.65;;;;;;;21.17;100.00;100813.50;10436173;28;20045;-68
2023/08/24 19:25:03;;;;;;;9.38;6.10;;;;;;;21.10;100.00;100844.88;10452798;28;20025;-68
2023/08/24 19:30:04;;;;;;;8.13;7.40;;;;;;;21.12;100.00;100872.97;10452065;28;20392;-69
2023/08/24 19:35:05;;;;;;;11.38;7.00;;;;;;;21.13;100.00;100885.66;10453117;28;20033;-68
2023/08/24 19:40:06;;;;;;;11.23;6.75;;;;;;;21.13;100.00;100921.44;10452135;28;20167;-69
2023/08/24 19:45:07;;;;;;;10.68;9.77;;;;;;;21.10;100.00;100938.50;10453214;28;20029;-68
2023/08/24 19:50:08;;;;;;;9.77;8.45;;;;;;;21.09;100.00;100947.00;10451841;28;20029;-68
2023/08/24 19:55:09;;;;;;;12.32;9.57;;;;;;;21.07;100.00;100963.81;10460287;28;20048;-69
2023/08/24 20:00:11;;;;;;;11.48;9.90;;;;;;;21.00;100.00;100965.97;10466774;28;20081;-69
2023/08/24 20:05:12;;;;;;;9.93;8.90;;;;;;;20.94;100.00;100957.94;10447936;28;20127;-69
2023/08/24 20:10:13;;;;;;;16.95;9.65;;;;;;;20.94;100.00;100947.75;10461409;28;20069;-69
2023/08/24 20:15:14;;;;;;;14.13;10.55;;;;;;;20.94;100.00;100936.75;10460577;28;20133;-68
2023/08/24 20:20:16;;;;;;;11.23;9.95;;;;;;;20.96;100.00;100925.47;10459416;28;20370;-69
2023/08/24 20:25:17;;;;;;;11.35;10.23;;;;;;;20.98;100.00;100931.53;10458742;28;20444;-69
2023/08/24 20:30:18;;;;;;;10.05;9.15;;;;;;;20.95;100.00;100918.31;10443088;28;20127;-70
2023/08/24 20:35:18;;;;;;;9.88;8.98;;;;;;;20.88;100.00;100915.78;10458638;28;20131;-70
2023/08/24 20:40:18;;;;;;;10.63;9.63;;;;;;;20.85;100.00;100895.13;10458412;28;20128;-70
2023/08/24 20:45:19;;;;;;;15.50;9.43;;;;;;;20.77;100.00;100864.53;10460040;28;20480;-69
2023/08/24 20:50:19;;;;;;;16.88;10.70;;;;;;;20.76;100.00;100851.88;10459250;28;20130;-70
2023/08/24 20:55:20;;;;;;;14.00;10.68;;;;;;;20.74;100.00;100827.38;10457791;28;20052;-70
2023/08/24 21:00:20;;;;;;;14.13;12.07;;;;;;;20.72;100.00;100788.28;10441003;28;20095;-70
2023/08/24 21:05:21;;;;;;;22.25;11.40;;;;;;;20.75;100.00;100861.22;10456525;28;20190;-70
2023/08/24 21:10:21;;;;;;;11.38;10.27;;;;;;;20.67;100.00;100879.03;10457446;28;20190;-70
2023/08/24 21:15:22;;;;;;;16.95;11.88;;;;;;;20.60;100.00;100917.81;10457122;28;20071;-70
2023/08/24 21:20:22;;;;;;;14.07;11.80;;;;;;;20.52;100.00;100923.81;10457833;28;20044;-70
2023/08/24 21:25:22;;;;;;;13.77;12.35;;;;;;;20.42;100.00;100938.28;10457958;28;20061;-70
2023/08/24 21:30:24;;;;;;;15.60;13.48;;;;;;;20.43;100.00;100936.34;10458470;28;20419;-70
2023/08/24 21:35:24;;;;;;;15.10;13.00;;;;;;;20.51;100.00;100921.28;10458622;28;20127;-69
2023/08/24 21:40:25;;;;;;;16.23;14.32;;;;;;;20.43;100.00;100911.59;10458286;28;20044;-69
2023/08/24 21:45:25;;;;;;;17.70;14.07;;;;;;;20.29;100.00;100916.69;10457508;28;20112;-69
2023/08/24 21:50:28;;;;;;;18.02;14.48;;;;;;;20.20;100.00;100915.53;10457768;28;20025;-68
2023/08/24 21:55:28;;;;;;;19.15;14.13;;;;;;;20.13;100.00;100918.50;10455646;28;20437;-69
2023/08/24 22:00:29;;;;;;;19.15;15.13;;;;;;;20.13;100.00;100932.25;10457255;28;20112;-70
2023/08/24 22:05:29;;;;;;;17.15;15.07;;;;;;;20.07;100.00;100919.53;10455374;28;20065;-69
2023/08/24 22:10:30;;;;;;;18.33;16.40;;;;;;;20.07;100.00;100925.03;10456306;28;20388;-69
2023/08/24 22:15:30;;;;;;;19.88;17.70;;;;;;;20.17;100.00;100919.63;10457463;28;20438;-70
2023/08/24 22:20:31;;;;;;;21.00;18.90;;;;;;;20.16;100.00;100925.38;10456205;28;20495;-69
2023/08/24 22:25:32;;;;;;;23.25;19.80;;;;;;;20.18;100.00;100929.53;10455844;28;20550;-69
2023/08/24 22:30:33;;;;;;;26.98;19.17;;;;;;;20.15;100.00;100927.28;10439157;28;20025;-69
2023/08/24 22:35:34;;;;;;;31.63;21.90;;;;;;;20.09;100.00;100931.09;10456380;28;20037;-69